sensor_id;sensor_type;location;lat;lon;timestamp;temperature;humidity
35633;DHT22;21754;48.216;-1.628;2022-09-29T00:01:55;14.40;99.90
35633;DHT22;21754;48.216;-1.628;2022-09-29T00:04:21;14.30;99.90
35633;DHT22;21754;48.216;-1.628;2022-09-29T00:06:47;14.30;99.90
35633;DHT22;21754;48.216;-1.628;2022-09-29T00:09:12;14.20;99.90
35633;DHT22;21754;48.216;-1.628;2022-09-29T00:11:38;14.20;99.90
35633;DHT22;21754;48.216;-1.628;2022-09-29T00:14:04;14.10;99.90
35633;DHT22;21754;48.216;-1.628;2022-09-29T00:16:29;14.10;99.90
35633;DHT22;21754;48.216;-1.628;2022-09-29T00:18:55;14.10;99.90
35633;DHT22;21754;48.216;-1.628;2022-09-29T00:21:21;14.10;99.90
35633;DHT22;21754;48.216;-1.628;2022-09-29T00:23:48;14.00;99.90
35633;DHT22;21754;48.216;-1.628;2022-09-29T00:26:22;14.00;99.90
35633;DHT22;21754;48.216;-1.628;2022-09-29T09:17:23;15.90;99.90
35633;DHT22;21754;48.216;-1.628;2022-09-29T09:20:13;15.80;99.90
35633;DHT22;21754;48.216;-1.628;2022-09-29T09:23:19;15.90;99.90
35633;DHT22;21754;48.216;-1.628;2022-09-29T09:25:57;15.90;99.90
35633;DHT22;21754;48.216;-1.628;2022-09-29T09:31:00;16.20;99.90
35633;DHT22;21754;48.216;-1.628;2022-09-29T09:33:57;16.30;99.90
35633;DHT22;21754;48.216;-1.628;2022-09-29T09:36:55;16.10;99.90
35633;DHT22;21754;48.216;-1.628;2022-09-29T09:39:35;16.30;99.90
35633;DHT22;21754;48.216;-1.628;2022-09-29T09:42:07;16.50;99.90
35633;DHT22;21754;48.216;-1.628;2022-09-29T09:44:41;16.40;99.90
35633;DHT22;21754;48.216;-1.628;2022-09-29T09:47:29;16.50;99.90
35633;DHT22;21754;48.216;-1.628;2022-09-29T09:50:03;16.70;99.90
35633;DHT22;21754;48.216;-1.628;2022-09-29T09:52:43;16.70;99.90
35633;DHT22;21754;48.216;-1.628;2022-09-29T09:55:15;16.70;99.90
35633;DHT22;21754;48.216;-1.628;2022-09-29T10:00:41;16.70;99.90
35633;DHT22;21754;48.216;-1.628;2022-09-29T10:03:07;16.40;99.90
35633;DHT22;21754;48.216;-1.628;2022-09-29T10:05:36;16.30;99.90
35633;DHT22;21754;48.216;-1.628;2022-09-29T10:08:06;16.20;99.90
35633;DHT22;21754;48.216;-1.628;2022-09-29T10:10:34;16.00;99.90
35633;DHT22;21754;48.216;-1.628;2022-09-29T10:13:05;16.00;99.90
35633;DHT22;21754;48.216;-1.628;2022-09-29T10:18:46;15.90;99.90
35633;DHT22;21754;48.216;-1.628;2022-09-29T10:23:52;16.00;99.90
35633;DHT22;21754;48.216;-1.628;2022-09-29T10:26:22;16.10;99.90
35633;DHT22;21754;48.216;-1.628;2022-09-29T10:28:57;16.20;99.90
35633;DHT22;21754;48.216;-1.628;2022-09-29T10:31:33;16.10;99.90
35633;DHT22;21754;48.216;-1.628;2022-09-29T10:34:22;16.00;99.90
35633;DHT22;21754;48.216;-1.628;2022-09-29T10:36:57;16.00;99.90
35633;DHT22;21754;48.216;-1.628;2022-09-29T10:42:24;16.10;99.90
35633;DHT22;21754;48.216;-1.628;2022-09-29T10:44:54;16.00;99.90
35633;DHT22;21754;48.216;-1.628;2022-09-29T10:47:25;16.10;99.90
35633;DHT22;21754;48.216;-1.628;2022-09-29T10:50:19;16.10;99.90
35633;DHT22;21754;48.216;-1.628;2022-09-29T10:52:57;16.20;99.90
35633;DHT22;21754;48.216;-1.628;2022-09-29T10:55:29;16.20;99.90
35633;DHT22;21754;48.216;-1.628;2022-09-29T10:57:58;16.30;99.90
35633;DHT22;21754;48.216;-1.628;2022-09-29T11:05:27;16.40;99.90
35633;DHT22;21754;48.216;-1.628;2022-09-29T11:07:53;16.70;99.90
35633;DHT22;21754;48.216;-1.628;2022-09-29T11:10:45;16.80;99.90
35633;DHT22;21754;48.216;-1.628;2022-09-29T11:15:42;16.80;99.90
35633;DHT22;21754;48.216;-1.628;2022-09-29T11:18:24;17.00;99.90
35633;DHT22;21754;48.216;-1.628;2022-09-29T11:23:56;17.10;99.90
35633;DHT22;21754;48.216;-1.628;2022-09-29T11:37:31;17.30;99.90
35633;DHT22;21754;48.216;-1.628;2022-09-29T11:42:44;17.80;99.90
35633;DHT22;21754;48.216;-1.628;2022-09-29T11:45:13;17.80;99.90
35633;DHT22;21754;48.216;-1.628;2022-09-29T11:53:59;17.70;99.90
35633;DHT22;21754;48.216;-1.628;2022-09-29T11:56:45;17.70;99.90
35633;DHT22;21754;48.216;-1.628;2022-09-29T12:10:13;17.60;99.90
35633;DHT22;21754;48.216;-1.628;2022-09-29T12:12:50;17.50;99.90
35633;DHT22;21754;48.216;-1.628;2022-09-29T12:17:50;17.50;99.90
35633;DHT22;21754;48.216;-1.628;2022-09-29T12:20:21;17.40;99.90
35633;DHT22;21754;48.216;-1.628;2022-09-29T12:22:50;17.40;99.90
35633;DHT22;21754;48.216;-1.628;2022-09-29T12:25:20;17.30;99.90
35633;DHT22;21754;48.216;-1.628;2022-09-29T12:30:26;17.40;99.90
35633;DHT22;21754;48.216;-1.628;2022-09-29T12:35:30;17.60;99.90
35633;DHT22;21754;48.216;-1.628;2022-09-29T12:38:15;17.50;99.90
35633;DHT22;21754;48.216;-1.628;2022-09-29T18:46:37;17.70;99.90
35633;DHT22;21754;48.216;-1.628;2022-09-29T18:49:02;15.30;99.90
35633;DHT22;21754;48.216;-1.628;2022-09-29T18:51:28;15.20;99.90
35633;DHT22;21754;48.216;-1.628;2022-09-29T18:53:54;15.20;99.90
35633;DHT22;21754;48.216;-1.628;2022-09-29T18:56:20;15.10;99.90
35633;DHT22;21754;48.216;-1.628;2022-09-29T18:58:45;15.10;99.90
35633;DHT22;21754;48.216;-1.628;2022-09-29T19:01:13;15.10;99.90
35633;DHT22;21754;48.216;-1.628;2022-09-29T19:03:42;15.10;99.90
35633;DHT22;21754;48.216;-1.628;2022-09-29T19:06:08;15.00;99.90
35633;DHT22;21754;48.216;-1.628;2022-09-29T19:08:37;15.00;99.90
35633;DHT22;21754;48.216;-1.628;2022-09-29T19:11:15;14.90;99.90
35633;DHT22;21754;48.216;-1.628;2022-09-29T19:13:41;14.90;99.90
35633;DHT22;21754;48.216;-1.628;2022-09-29T19:16:08;14.90;99.90
35633;DHT22;21754;48.216;-1.628;2022-09-29T19:18:34;14.90;99.90
35633;DHT22;21754;48.216;-1.628;2022-09-29T19:20:59;14.80;99.90
35633;DHT22;21754;48.216;-1.628;2022-09-29T19:23:26;14.80;99.90
35633;DHT22;21754;48.216;-1.628;2022-09-29T19:25:53;14.80;99.90
35633;DHT22;21754;48.216;-1.628;2022-09-29T19:28:20;14.90;99.90
35633;DHT22;21754;48.216;-1.628;2022-09-29T19:30:47;14.90;99.90
35633;DHT22;21754;48.216;-1.628;2022-09-29T19:33:15;14.90;99.90
35633;DHT22;21754;48.216;-1.628;2022-09-29T19:35:50;14.90;99.90
35633;DHT22;21754;48.216;-1.628;2022-09-29T19:38:18;14.80;99.90
35633;DHT22;21754;48.216;-1.628;2022-09-29T19:40:45;14.80;99.90
35633;DHT22;21754;48.216;-1.628;2022-09-29T19:43:11;14.80;99.90
35633;DHT22;21754;48.216;-1.628;2022-09-29T19:45:38;14.70;99.90
35633;DHT22;21754;48.216;-1.628;2022-09-29T19:48:09;14.70;99.90
35633;DHT22;21754;48.216;-1.628;2022-09-29T19:50:36;14.60;99.90
35633;DHT22;21754;48.216;-1.628;2022-09-29T19:53:20;14.60;99.90
35633;DHT22;21754;48.216;-1.628;2022-09-29T19:55:46;14.60;99.90
35633;DHT22;21754;48.216;-1.628;2022-09-29T19:58:12;14.50;99.90
35633;DHT22;21754;48.216;-1.628;2022-09-29T20:00:38;14.50;99.90
35633;DHT22;21754;48.216;-1.628;2022-09-29T20:03:07;14.50;99.90
35633;DHT22;21754;48.216;-1.628;2022-09-29T20:05:33;14.50;99.90
35633;DHT22;21754;48.216;-1.628;2022-09-29T20:07:59;14.50;99.90
35633;DHT22;21754;48.216;-1.628;2022-09-29T20:10:26;14.50;99.90
35633;DHT22;21754;48.216;-1.628;2022-09-29T20:12:53;14.40;99.90
35633;DHT22;21754;48.216;-1.628;2022-09-29T20:32:25;14.40;99.90
35633;DHT22;21754;48.216;-1.628;2022-09-29T20:34:51;14.40;99.90
35633;DHT22;21754;48.216;-1.628;2022-09-29T20:37:17;14.40;99.90
35633;DHT22;21754;48.216;-1.628;2022-09-29T20:39:42;14.40;99.90
35633;DHT22;21754;48.216;-1.628;2022-09-29T20:42:08;14.30;99.90
35633;DHT22;21754;48.216;-1.628;2022-09-29T20:44:34;14.30;99.90
35633;DHT22;21754;48.216;-1.628;2022-09-29T20:47:00;14.30;99.90
35633;DHT22;21754;48.216;-1.628;2022-09-29T20:49:26;14.30;99.90
35633;DHT22;21754;48.216;-1.628;2022-09-29T20:51:52;14.30;99.90
35633;DHT22;21754;48.216;-1.628;2022-09-29T20:54:18;14.20;99.90
35633;DHT22;21754;48.216;-1.628;2022-09-29T20:56:44;14.20;99.90
35633;DHT22;21754;48.216;-1.628;2022-09-29T20:59:16;14.20;99.90
35633;DHT22;21754;48.216;-1.628;2022-09-29T21:01:42;14.10;99.90
35633;DHT22;21754;48.216;-1.628;2022-09-29T21:04:13;14.00;99.90
35633;DHT22;21754;48.216;-1.628;2022-09-29T21:06:44;14.00;99.90
35633;DHT22;21754;48.216;-1.628;2022-09-29T21:09:13;14.00;99.90
35633;DHT22;21754;48.216;-1.628;2022-09-29T21:11:39;14.00;99.90
35633;DHT22;21754;48.216;-1.628;2022-09-29T21:14:09;14.00;99.90
35633;DHT22;21754;48.216;-1.628;2022-09-29T21:16:36;14.00;99.90
35633;DHT22;21754;48.216;-1.628;2022-09-29T21:19:02;14.00;99.90
35633;DHT22;21754;48.216;-1.628;2022-09-29T21:21:28;14.00;99.90
35633;DHT22;21754;48.216;-1.628;2022-09-29T21:23:54;14.00;99.90
35633;DHT22;21754;48.216;-1.628;2022-09-29T21:26:20;13.90;99.90
35633;DHT22;21754;48.216;-1.628;2022-09-29T21:28:54;13.80;99.90
35633;DHT22;21754;48.216;-1.628;2022-09-29T21:31:22;13.80;99.90
35633;DHT22;21754;48.216;-1.628;2022-09-29T21:33:54;13.80;99.90
35633;DHT22;21754;48.216;-1.628;2022-09-29T21:36:22;13.80;99.90
35633;DHT22;21754;48.216;-1.628;2022-09-29T21:38:49;13.80;99.90
35633;DHT22;21754;48.216;-1.628;2022-09-29T21:41:18;13.80;99.90
35633;DHT22;21754;48.216;-1.628;2022-09-29T21:43:46;13.80;99.90
35633;DHT22;21754;48.216;-1.628;2022-09-29T21:46:14;13.80;99.90
35633;DHT22;21754;48.216;-1.628;2022-09-29T21:48:40;13.80;99.90
35633;DHT22;21754;48.216;-1.628;2022-09-29T21:51:16;13.70;99.90
35633;DHT22;21754;48.216;-1.628;2022-09-29T21:53:43;13.60;99.90
35633;DHT22;21754;48.216;-1.628;2022-09-29T21:56:12;13.60;99.90
35633;DHT22;21754;48.216;-1.628;2022-09-29T21:58:38;13.60;99.90
35633;DHT22;21754;48.216;-1.628;2022-09-29T22:01:05;13.50;99.90
35633;DHT22;21754;48.216;-1.628;2022-09-29T22:03:37;13.40;99.90
35633;DHT22;21754;48.216;-1.628;2022-09-29T22:06:03;13.40;99.90
35633;DHT22;21754;48.216;-1.628;2022-09-29T22:08:30;13.40;99.90
35633;DHT22;21754;48.216;-1.628;2022-09-29T22:10:57;13.30;99.90
35633;DHT22;21754;48.216;-1.628;2022-09-29T22:13:24;13.30;99.90
35633;DHT22;21754;48.216;-1.628;2022-09-29T22:16:01;13.30;99.90
35633;DHT22;21754;48.216;-1.628;2022-09-29T22:18:31;13.20;99.90
35633;DHT22;21754;48.216;-1.628;2022-09-29T22:20:58;13.20;99.90
35633;DHT22;21754;48.216;-1.628;2022-09-29T22:23:24;13.20;99.90
35633;DHT22;21754;48.216;-1.628;2022-09-29T22:25:50;13.20;99.90
35633;DHT22;21754;48.216;-1.628;2022-09-29T22:28:15;13.20;99.90
35633;DHT22;21754;48.216;-1.628;2022-09-29T22:30:41;13.20;99.90
35633;DHT22;21754;48.216;-1.628;2022-09-29T22:33:07;13.10;99.90
35633;DHT22;21754;48.216;-1.628;2022-09-29T22:35:34;13.10;99.90
35633;DHT22;21754;48.216;-1.628;2022-09-29T22:38:00;13.00;99.90
35633;DHT22;21754;48.216;-1.628;2022-09-29T22:40:27;13.00;99.90
35633;DHT22;21754;48.216;-1.628;2022-09-29T22:42:52;13.10;99.90
35633;DHT22;21754;48.216;-1.628;2022-09-29T22:45:19;13.10;99.90
35633;DHT22;21754;48.216;-1.628;2022-09-29T22:47:45;13.00;99.90
35633;DHT22;21754;48.216;-1.628;2022-09-29T22:50:10;12.90;99.90
35633;DHT22;21754;48.216;-1.628;2022-09-29T22:52:36;12.90;99.90
35633;DHT22;21754;48.216;-1.628;2022-09-29T22:55:02;12.80;99.90
35633;DHT22;21754;48.216;-1.628;2022-09-29T22:57:29;12.80;99.90
35633;DHT22;21754;48.216;-1.628;2022-09-29T22:59:55;12.80;99.90
35633;DHT22;21754;48.216;-1.628;2022-09-29T23:02:21;12.80;99.90
35633;DHT22;21754;48.216;-1.628;2022-09-29T23:04:47;12.80;99.90
35633;DHT22;21754;48.216;-1.628;2022-09-29T23:07:12;12.80;99.90
35633;DHT22;21754;48.216;-1.628;2022-09-29T23:09:38;12.80;99.90
35633;DHT22;21754;48.216;-1.628;2022-09-29T23:12:04;12.80;99.90
35633;DHT22;21754;48.216;-1.628;2022-09-29T23:14:30;12.90;99.90
35633;DHT22;21754;48.216;-1.628;2022-09-29T23:16:56;12.90;99.90
35633;DHT22;21754;48.216;-1.628;2022-09-29T23:19:21;13.00;99.90
35633;DHT22;21754;48.216;-1.628;2022-09-29T23:21:47;13.00;99.90
35633;DHT22;21754;48.216;-1.628;2022-09-29T23:24:12;13.00;99.90
35633;DHT22;21754;48.216;-1.628;2022-09-29T23:26:39;12.90;99.90
35633;DHT22;21754;48.216;-1.628;2022-09-29T23:29:05;13.00;99.90
35633;DHT22;21754;48.216;-1.628;2022-09-29T23:31:32;12.90;99.90
35633;DHT22;21754;48.216;-1.628;2022-09-29T23:33:59;12.90;99.90
35633;DHT22;21754;48.216;-1.628;2022-09-29T23:36:27;12.90;99.90
35633;DHT22;21754;48.216;-1.628;2022-09-29T23:38:53;12.90;99.90
35633;DHT22;21754;48.216;-1.628;2022-09-29T23:41:38;12.90;99.90
35633;DHT22;21754;48.216;-1.628;2022-09-29T23:44:04;12.80;99.90
35633;DHT22;21754;48.216;-1.628;2022-09-29T23:46:34;12.80;99.90
35633;DHT22;21754;48.216;-1.628;2022-09-29T23:49:03;12.70;99.90
